createdAt,value
2023-01-21T00:01:22.056Z,22.83
2023-01-21T00:03:50.714Z,21.00
2023-01-21T00:06:19.272Z,21.90
2023-01-21T00:08:47.700Z,23.30
2023-01-21T00:11:17.475Z,22.90
2023-01-21T00:13:46.604Z,22.73
2023-01-21T00:16:16.108Z,21.20
2023-01-21T00:18:44.589Z,21.80
2023-01-21T00:21:13.080Z,18.83
2023-01-21T00:23:41.736Z,22.03
2023-01-21T00:26:13.112Z,20.17
2023-01-21T00:28:45.173Z,19.83
2023-01-21T00:31:14.151Z,21.00
2023-01-21T00:33:42.606Z,21.27
2023-01-21T00:36:15.605Z,18.63
2023-01-21T00:38:45.086Z,22.33
2023-01-21T00:41:14.899Z,21.67
2023-01-21T00:43:44.052Z,20.57
2023-01-21T00:46:13.103Z,20.40
2023-01-21T00:48:41.565Z,20.10
2023-01-21T00:51:10.609Z,21.93
2023-01-21T00:53:42.853Z,21.50
2023-01-21T00:56:14.067Z,20.27
2023-01-21T00:58:46.025Z,23.10
2023-01-21T01:01:27.707Z,20.03
2023-01-21T01:03:56.111Z,22.80
2023-01-21T01:06:25.623Z,23.00
2023-01-21T01:08:55.233Z,21.80
2023-01-21T01:11:25.283Z,25.13
2023-01-21T01:13:57.374Z,24.30
2023-01-21T01:16:26.245Z,21.17
2023-01-21T01:18:54.841Z,22.10
2023-01-21T01:21:24.221Z,22.60
2023-01-21T01:23:53.411Z,24.80
2023-01-21T01:26:23.219Z,23.20
2023-01-21T01:28:51.659Z,23.07
2023-01-21T01:31:22.208Z,22.20
2023-01-21T01:33:51.232Z,25.07
2023-01-21T01:36:24.406Z,24.63
2023-01-21T01:38:54.151Z,20.73
2023-01-21T01:41:26.216Z,21.23
2023-01-21T01:44:04.779Z,23.07
2023-01-21T01:46:37.807Z,22.97
2023-01-21T01:49:15.102Z,21.57
2023-01-21T01:52:05.283Z,26.27
2023-01-21T01:54:37.947Z,23.50
2023-01-21T01:57:10.728Z,27.00
2023-01-21T01:59:40.748Z,24.33
2023-01-21T02:02:12.634Z,24.30
2023-01-21T02:04:55.561Z,23.87
2023-01-21T02:07:26.135Z,22.23
2023-01-21T02:09:55.769Z,24.33
2023-01-21T02:12:24.627Z,25.53
2023-01-21T02:14:53.151Z,29.40
2023-01-21T02:17:42.854Z,25.87
2023-01-21T02:20:41.203Z,24.73
2023-01-21T02:23:28.301Z,24.67
2023-01-21T02:26:05.717Z,24.70
2023-01-21T02:28:34.160Z,23.50
2023-01-21T02:31:23.688Z,23.67
2023-01-21T02:34:05.175Z,24.30
2023-01-21T02:37:14.873Z,26.37
2023-01-21T02:40:08.172Z,26.70
2023-01-21T02:42:39.686Z,26.30
2023-01-21T02:45:11.651Z,29.53
2023-01-21T02:48:14.888Z,30.43
2023-01-21T02:50:55.662Z,31.67
2023-01-21T02:53:29.792Z,31.93
2023-01-21T02:56:16.866Z,31.13
2023-01-21T02:58:56.568Z,32.45
2023-01-21T03:01:57.049Z,32.37
2023-01-21T03:05:04.627Z,35.83
2023-01-21T03:07:47.133Z,30.33
2023-01-21T03:10:33.774Z,30.40
2023-01-21T03:13:12.063Z,30.98
2023-01-21T03:16:16.495Z,29.85
2023-01-21T03:18:51.020Z,35.22
2023-01-21T03:21:26.531Z,31.88
2023-01-21T03:23:56.918Z,31.80
2023-01-21T03:26:33.479Z,32.63
2023-01-21T03:29:10.804Z,34.85
2023-01-21T03:31:41.121Z,30.70
2023-01-21T03:34:12.683Z,30.52
2023-01-21T03:36:59.485Z,28.83
2023-01-21T03:39:49.405Z,31.60
2023-01-21T03:42:18.515Z,30.70
2023-01-21T03:44:47.778Z,30.50
2023-01-21T03:47:32.628Z,30.00
2023-01-21T03:50:09.727Z,29.50
2023-01-21T03:52:43.007Z,30.17
2023-01-21T03:55:12.768Z,28.25
2023-01-21T03:57:41.653Z,27.05
2023-01-21T04:00:11.119Z,26.60
2023-01-21T04:02:40.030Z,23.73
2023-01-21T04:05:08.788Z,27.42
2023-01-21T04:07:37.257Z,26.50
2023-01-21T04:10:05.971Z,31.52
2023-01-21T04:12:34.468Z,26.90
2023-01-21T04:15:05.397Z,34.42
2023-01-21T04:17:34.003Z,34.05
2023-01-21T04:20:02.561Z,30.23
2023-01-21T04:22:30.950Z,26.05
2023-01-21T04:24:59.352Z,24.67
2023-01-21T04:27:27.799Z,26.50
2023-01-21T04:29:56.206Z,23.25
2023-01-21T04:32:24.617Z,25.08
2023-01-21T04:34:53.143Z,24.15
2023-01-21T04:37:21.569Z,21.95
2023-01-21T04:39:49.987Z,21.65
2023-01-21T04:42:18.491Z,19.40
2023-01-21T04:44:46.947Z,19.05
2023-01-21T04:47:15.386Z,19.05
2023-01-21T04:49:43.821Z,18.58
2023-01-21T04:52:12.388Z,19.80
2023-01-21T04:54:41.268Z,19.13
2023-01-21T04:57:09.853Z,17.50
2023-01-21T04:59:38.569Z,20.33
2023-01-21T05:02:06.992Z,19.83
2023-01-21T05:04:35.529Z,19.50
2023-01-21T05:07:04.160Z,19.03
2023-01-21T05:09:32.590Z,18.75
2023-01-21T05:12:01.090Z,18.80
2023-01-21T05:14:29.542Z,22.17
2023-01-21T05:16:59.012Z,17.70
2023-01-21T05:19:27.499Z,19.00
2023-01-21T05:21:56.247Z,22.23
2023-01-21T05:24:24.652Z,19.77
2023-01-21T05:26:53.428Z,19.67
2023-01-21T05:29:21.837Z,18.73
2023-01-21T05:31:50.315Z,19.75
2023-01-21T05:34:18.794Z,20.30
2023-01-21T05:36:47.251Z,23.15
2023-01-21T05:39:15.731Z,21.42
2023-01-21T05:41:44.206Z,20.42
2023-01-21T05:44:12.719Z,17.73
2023-01-21T05:46:41.130Z,17.30
2023-01-21T05:49:10.211Z,17.80
2023-01-21T05:51:38.658Z,18.27
2023-01-21T05:54:07.328Z,16.00
2023-01-21T05:56:35.796Z,19.65
2023-01-21T05:59:04.416Z,22.08
2023-01-21T06:01:32.822Z,19.98
2023-01-21T06:04:01.652Z,19.23
2023-01-21T06:06:30.051Z,20.15
2023-01-21T06:08:58.541Z,23.15
2023-01-21T06:11:27.118Z,24.17
2023-01-21T06:13:55.511Z,20.08
2023-01-21T06:16:23.961Z,23.45
2023-01-21T06:18:52.408Z,22.45
2023-01-21T06:21:21.031Z,23.35
2023-01-21T06:23:49.443Z,28.02
2023-01-21T06:26:18.089Z,31.05
2023-01-21T06:28:46.606Z,24.73
2023-01-21T06:31:15.578Z,25.90
2023-01-21T06:33:44.158Z,28.02
2023-01-21T06:36:12.632Z,35.80
2023-01-21T06:38:41.052Z,31.98
2023-01-21T06:41:09.474Z,29.50
2023-01-21T06:43:37.996Z,36.85
2023-01-21T06:46:06.674Z,43.03
2023-01-21T06:48:35.226Z,51.13
2023-01-21T06:51:03.974Z,56.28
2023-01-21T06:53:32.446Z,51.67
2023-01-21T06:56:01.287Z,42.03
2023-01-21T06:58:29.758Z,45.17
2023-01-21T07:00:58.639Z,47.10
2023-01-21T07:03:27.087Z,70.93
2023-01-21T07:05:55.539Z,74.25
2023-01-21T07:08:23.982Z,95.95
2023-01-21T07:10:52.584Z,69.10
2023-01-21T07:13:21.469Z,64.75
2023-01-21T07:15:50.004Z,76.72
2023-01-21T07:18:18.448Z,66.50
2023-01-21T07:20:46.896Z,66.35
2023-01-21T07:23:15.624Z,58.55
2023-01-21T07:25:44.015Z,60.20
2023-01-21T07:28:12.595Z,52.80
2023-01-21T07:30:41.072Z,58.28
2023-01-21T07:33:11.153Z,57.78
2023-01-21T07:35:39.717Z,61.30
2023-01-21T07:38:08.152Z,52.35
2023-01-21T07:40:36.638Z,46.05
2023-01-21T07:43:05.118Z,48.05
2023-01-21T07:45:33.940Z,40.22
2023-01-21T07:48:02.378Z,40.97
2023-01-21T07:50:31.306Z,39.65
2023-01-21T07:53:00.516Z,78.20
2023-01-21T07:55:30.575Z,51.00
2023-01-21T07:58:00.174Z,66.05
2023-01-21T08:00:29.985Z,55.47
2023-01-21T08:02:59.509Z,51.90
2023-01-21T08:05:28.449Z,44.90
2023-01-21T08:07:59.480Z,51.25
2023-01-21T08:10:28.267Z,52.58
2023-01-21T08:12:56.668Z,54.08
2023-01-21T08:15:25.133Z,40.28
2023-01-21T08:17:53.559Z,55.30
2023-01-21T08:20:22.000Z,41.40
2023-01-21T08:22:50.479Z,42.38
2023-01-21T08:25:19.408Z,46.88
2023-01-21T08:27:47.960Z,45.92
2023-01-21T08:30:16.844Z,45.25
2023-01-21T08:32:46.931Z,46.17
2023-01-21T08:35:15.751Z,47.85
2023-01-21T08:37:44.559Z,54.20
2023-01-21T08:40:13.505Z,42.28
2023-01-21T08:42:41.911Z,39.03
2023-01-21T08:45:11.024Z,32.22
2023-01-21T08:47:39.439Z,33.33
2023-01-21T08:50:08.712Z,58.95
2023-01-21T08:52:37.341Z,55.20
2023-01-21T08:55:05.942Z,52.25
2023-01-21T08:57:34.620Z,45.90
2023-01-21T09:00:03.079Z,42.67
2023-01-21T09:02:31.583Z,39.05
2023-01-21T09:05:00.052Z,40.80
2023-01-21T09:07:28.539Z,30.92
2023-01-21T09:09:56.963Z,35.47
2023-01-21T09:12:25.437Z,63.13
2023-01-21T09:14:53.886Z,50.10
2023-01-21T09:17:23.602Z,54.22
2023-01-21T09:19:53.591Z,41.83
2023-01-21T09:22:23.152Z,49.78
2023-01-21T09:24:51.600Z,30.25
2023-01-21T09:27:20.260Z,51.50
2023-01-21T09:29:48.688Z,26.15
2023-01-21T09:32:17.543Z,34.28
2023-01-21T09:34:45.944Z,23.95
2023-01-21T09:37:14.407Z,23.05
2023-01-21T09:39:42.891Z,25.98
2023-01-21T09:42:26.376Z,23.92
2023-01-21T09:44:57.725Z,20.98
2023-01-21T09:47:41.795Z,32.88
2023-01-21T09:50:15.219Z,22.23
2023-01-21T09:52:56.187Z,23.42
2023-01-21T09:55:50.688Z,22.15
2023-01-21T09:58:28.547Z,22.65
2023-01-21T10:01:14.581Z,22.10
2023-01-21T10:04:03.076Z,26.67
2023-01-21T10:06:50.313Z,30.25
2023-01-21T10:09:44.570Z,29.05
2023-01-21T10:12:26.491Z,29.77
2023-01-21T10:15:07.154Z,29.48
2023-01-21T10:17:52.712Z,36.65
2023-01-21T10:20:31.169Z,25.70
2023-01-21T10:23:48.918Z,27.17
2023-01-21T10:26:17.763Z,31.63
2023-01-21T10:28:51.707Z,26.65
2023-01-21T10:31:29.486Z,23.77
2023-01-21T10:33:58.130Z,27.67
2023-01-21T10:36:34.997Z,37.10
2023-01-21T10:39:29.021Z,29.45
2023-01-21T10:42:16.106Z,28.17
2023-01-21T10:45:06.590Z,36.38
2023-01-21T10:47:48.565Z,36.50
2023-01-21T10:50:39.790Z,30.33
2023-01-21T10:53:26.396Z,26.25
2023-01-21T10:56:30.104Z,28.50
2023-01-21T10:59:06.126Z,29.88
2023-01-21T11:01:38.388Z,20.67
2023-01-21T11:04:22.321Z,21.42
2023-01-21T11:07:07.540Z,19.77
2023-01-21T11:09:46.450Z,24.15
2023-01-21T11:12:20.630Z,25.42
2023-01-21T11:15:14.513Z,25.77
2023-01-21T11:17:46.038Z,22.08
2023-01-21T11:20:19.223Z,23.95
2023-01-21T11:22:49.880Z,21.15
2023-01-21T11:25:55.113Z,23.38
2023-01-21T11:28:33.052Z,19.10
2023-01-21T11:31:27.374Z,20.95
2023-01-21T11:33:56.818Z,19.10
2023-01-21T11:36:25.267Z,22.02
2023-01-21T11:39:07.438Z,22.65
2023-01-21T11:41:35.968Z,20.23
2023-01-21T11:44:18.620Z,19.38
2023-01-21T11:46:47.319Z,19.60
2023-01-21T11:49:20.792Z,21.38
2023-01-21T11:51:49.443Z,30.35
2023-01-21T11:54:23.567Z,25.55
2023-01-21T11:57:03.328Z,27.00
2023-01-21T11:59:36.807Z,26.25
2023-01-21T12:02:16.709Z,23.50
2023-01-21T12:04:51.954Z,25.27
2023-01-21T12:07:35.035Z,24.40
2023-01-21T12:10:15.174Z,28.77
2023-01-21T12:13:07.229Z,31.27
2023-01-21T12:16:04.263Z,29.85
2023-01-21T12:19:03.794Z,26.90
2023-01-21T12:22:02.834Z,30.23
2023-01-21T12:24:31.245Z,23.85
2023-01-21T12:27:03.199Z,22.52
2023-01-21T12:29:57.220Z,22.13
2023-01-21T12:32:35.711Z,26.10
2023-01-21T12:35:19.378Z,25.00
2023-01-21T12:38:20.606Z,34.58
2023-01-21T12:40:59.638Z,39.42
2023-01-21T12:43:38.115Z,24.23
2023-01-21T12:46:35.840Z,21.42
2023-01-21T12:49:18.669Z,27.52
2023-01-21T12:52:02.287Z,30.73
2023-01-21T12:54:38.706Z,25.20
2023-01-21T12:57:42.300Z,23.95
2023-01-21T13:00:16.953Z,32.03
2023-01-21T13:03:20.654Z,20.27
2023-01-21T13:06:12.542Z,19.33
2023-01-21T13:09:04.185Z,19.63
2023-01-21T13:11:51.109Z,28.08
2023-01-21T13:14:36.151Z,24.77
2023-01-21T13:17:35.626Z,21.63
2023-01-21T13:20:16.600Z,28.40
2023-01-21T13:23:16.863Z,63.05
2023-01-21T13:26:06.560Z,76.10
2023-01-21T13:29:15.093Z,28.48
2023-01-21T13:32:11.448Z,33.60
2023-01-21T13:34:57.613Z,32.80
2023-01-21T13:37:28.975Z,34.63
2023-01-21T13:40:15.893Z,27.67
2023-01-21T13:42:54.433Z,24.95
2023-01-21T13:45:34.940Z,38.78
2023-01-21T13:48:06.935Z,27.45
2023-01-21T13:51:01.822Z,27.25
2023-01-21T13:54:12.386Z,27.73
2023-01-21T13:57:07.251Z,29.85
2023-01-21T14:00:19.550Z,24.40
2023-01-21T14:03:17.642Z,25.13
2023-01-21T14:05:52.478Z,35.58
2023-01-21T14:08:44.121Z,30.50
2023-01-21T14:11:33.149Z,34.78
2023-01-21T14:14:41.386Z,26.13
2023-01-21T14:17:32.976Z,29.80
2023-01-21T14:20:13.355Z,33.45
2023-01-21T14:22:55.759Z,28.75
2023-01-21T14:25:24.220Z,42.88
2023-01-21T14:28:14.041Z,36.30
2023-01-21T14:31:07.490Z,32.42
2023-01-21T14:33:52.333Z,43.92
2023-01-21T14:36:25.203Z,30.02
2023-01-21T14:39:25.740Z,36.58
2023-01-21T14:41:57.340Z,41.85
2023-01-21T14:44:44.130Z,45.00
2023-01-21T14:47:23.757Z,33.45
2023-01-21T14:49:54.418Z,32.13
2023-01-21T14:52:33.321Z,34.92
2023-01-21T14:55:03.039Z,39.92
2023-01-21T14:57:35.123Z,40.22
2023-01-21T15:00:09.179Z,31.88
2023-01-21T15:02:45.151Z,36.75
2023-01-21T15:05:39.155Z,42.45
2023-01-21T15:08:14.874Z,41.58
2023-01-21T15:10:44.003Z,39.83
2023-01-21T15:13:34.078Z,32.60
2023-01-21T15:16:34.662Z,38.50
2023-01-21T15:19:12.200Z,47.90
2023-01-21T15:21:46.802Z,41.28
2023-01-21T15:24:27.723Z,46.42
2023-01-21T15:27:22.105Z,45.53
2023-01-21T15:29:57.603Z,42.50
2023-01-21T15:32:47.588Z,40.90
2023-01-21T15:35:48.234Z,42.67
2023-01-21T15:38:18.271Z,42.50
2023-01-21T15:40:52.918Z,37.42
2023-01-21T15:43:50.423Z,36.00
2023-01-21T15:46:33.728Z,41.65
2023-01-21T15:49:22.743Z,35.53
2023-01-21T15:52:26.040Z,35.42
2023-01-21T15:55:09.665Z,37.42
2023-01-21T15:57:53.437Z,42.42
2023-01-21T16:00:35.299Z,42.22
2023-01-21T16:03:25.675Z,34.42
2023-01-21T16:06:29.396Z,31.60
2023-01-21T16:09:06.879Z,33.15
2023-01-21T16:12:06.345Z,37.47
2023-01-21T16:15:18.420Z,26.80
2023-01-21T16:17:59.464Z,31.10
2023-01-21T16:20:28.345Z,41.90
2023-01-21T16:23:01.726Z,38.70
2023-01-21T16:25:30.274Z,45.05
2023-01-21T16:27:58.773Z,39.75
2023-01-21T16:30:32.799Z,31.38
2023-01-21T16:33:15.680Z,39.80
2023-01-21T16:35:51.207Z,42.55
2023-01-21T16:38:22.750Z,29.13
2023-01-21T16:41:00.739Z,24.17
2023-01-21T16:43:29.700Z,30.67
2023-01-21T16:46:05.686Z,24.13
2023-01-21T16:48:35.407Z,22.05
2023-01-21T16:51:04.520Z,26.63
2023-01-21T16:53:33.001Z,27.48
2023-01-21T16:56:01.649Z,25.38
2023-01-21T16:58:33.413Z,25.98
2023-01-21T17:01:09.948Z,25.65
2023-01-21T17:03:39.455Z,21.30
2023-01-21T17:06:13.501Z,20.58
2023-01-21T17:08:42.394Z,24.85
2023-01-21T17:11:12.871Z,22.42
2023-01-21T17:13:44.341Z,22.77
2023-01-21T17:16:26.515Z,21.80
2023-01-21T17:18:59.776Z,18.70
2023-01-21T17:21:48.051Z,21.38
2023-01-21T17:24:28.354Z,20.30
2023-01-21T17:27:09.951Z,20.20
2023-01-21T17:29:39.547Z,18.90
2023-01-21T17:32:27.849Z,18.88
2023-01-21T17:35:15.575Z,15.95
2023-01-21T17:37:44.644Z,18.98
2023-01-21T17:40:42.826Z,16.58
2023-01-21T17:43:23.656Z,19.73
2023-01-21T17:45:54.344Z,16.92
2023-01-21T17:48:33.465Z,16.45
2023-01-21T17:51:26.504Z,17.10
2023-01-21T17:54:01.688Z,18.05
2023-01-21T17:56:40.940Z,19.92
2023-01-21T17:59:40.269Z,19.50
2023-01-21T18:02:18.344Z,19.70
2023-01-21T18:04:47.235Z,21.38
2023-01-21T18:07:23.630Z,24.50
2023-01-21T18:09:59.751Z,23.98
2023-01-21T18:12:28.458Z,19.33
2023-01-21T18:14:56.861Z,19.80
2023-01-21T18:17:26.570Z,20.85
2023-01-21T18:19:57.719Z,19.70
2023-01-21T18:22:31.295Z,17.13
2023-01-21T18:25:01.283Z,20.17
2023-01-21T18:27:30.070Z,16.70
2023-01-21T18:29:59.725Z,16.45
2023-01-21T18:32:28.201Z,17.38
2023-01-21T18:34:57.046Z,17.67
2023-01-21T18:37:26.866Z,17.67
2023-01-21T18:39:55.315Z,15.48
2023-01-21T18:42:24.427Z,14.93
2023-01-21T18:44:52.848Z,17.10
2023-01-21T18:47:21.503Z,17.77
2023-01-21T18:49:51.697Z,16.40
2023-01-21T18:52:21.625Z,16.70
2023-01-21T18:54:50.130Z,16.45
2023-01-21T18:57:23.678Z,14.75
2023-01-21T18:59:52.100Z,16.48
2023-01-21T19:02:22.130Z,14.10
2023-01-21T19:04:51.317Z,16.15
2023-01-21T19:07:24.612Z,15.68
2023-01-21T19:09:53.184Z,10.90
2023-01-21T19:12:23.743Z,10.98
2023-01-21T19:14:52.424Z,10.73
2023-01-21T19:17:29.667Z,12.48
2023-01-21T19:19:58.565Z,9.88
2023-01-21T19:22:27.140Z,11.10
2023-01-21T19:24:55.567Z,8.93
2023-01-21T19:27:36.538Z,8.50
2023-01-21T19:30:12.359Z,9.63
2023-01-21T19:32:40.788Z,9.05
2023-01-21T19:35:10.184Z,8.95
2023-01-21T19:37:41.731Z,9.80
2023-01-21T19:40:20.112Z,8.95
2023-01-21T19:42:49.464Z,10.60
2023-01-21T19:45:19.209Z,9.57
2023-01-21T19:47:50.254Z,9.13
2023-01-21T19:50:21.488Z,10.23
2023-01-21T19:52:51.715Z,9.80
2023-01-21T19:55:25.685Z,9.18
2023-01-21T19:58:00.913Z,9.90
2023-01-21T20:00:32.420Z,10.60
2023-01-21T20:03:01.234Z,9.27
2023-01-21T20:05:34.519Z,10.48
2023-01-21T20:08:03.692Z,10.10
2023-01-21T20:10:32.673Z,9.90
2023-01-21T20:13:01.377Z,10.48
2023-01-21T20:15:32.544Z,10.43
2023-01-21T20:18:03.672Z,9.70
2023-01-21T20:20:34.358Z,8.65
2023-01-21T20:23:03.019Z,9.43
2023-01-21T20:25:38.714Z,9.00
2023-01-21T20:28:24.078Z,8.88
2023-01-21T20:30:54.796Z,8.55
2023-01-21T20:33:27.220Z,9.52
2023-01-21T20:35:57.548Z,8.13
2023-01-21T20:38:32.470Z,9.48
2023-01-21T20:41:02.716Z,9.40
2023-01-21T20:43:31.271Z,9.02
2023-01-21T20:46:04.768Z,8.25
2023-01-21T20:48:42.155Z,7.43
2023-01-21T20:51:11.463Z,9.32
2023-01-21T20:53:40.738Z,6.93
2023-01-21T20:56:27.664Z,9.20
2023-01-21T20:58:56.248Z,9.27
2023-01-21T21:01:25.946Z,5.80
2023-01-21T21:03:54.767Z,6.40
2023-01-21T21:06:27.524Z,5.57
2023-01-21T21:08:56.590Z,6.30
2023-01-21T21:11:26.618Z,4.77
2023-01-21T21:13:55.042Z,4.53
2023-01-21T21:16:32.671Z,4.60
2023-01-21T21:19:02.063Z,4.07
2023-01-21T21:21:30.591Z,4.87
2023-01-21T21:23:59.080Z,5.10
2023-01-21T21:26:30.135Z,3.50
2023-01-21T21:29:00.982Z,4.23
2023-01-21T21:31:33.638Z,3.40
2023-01-21T21:34:02.156Z,4.80
2023-01-21T21:36:31.080Z,3.60
2023-01-21T21:39:00.927Z,3.77
2023-01-21T21:41:47.787Z,4.00
2023-01-21T21:44:16.216Z,4.23
2023-01-21T21:47:02.924Z,3.83
2023-01-21T21:49:31.505Z,4.07
2023-01-21T21:52:02.784Z,4.37
2023-01-21T21:54:31.934Z,3.80
2023-01-21T21:57:00.385Z,3.57
2023-01-21T21:59:28.860Z,3.80
2023-01-21T22:01:57.693Z,3.57
2023-01-21T22:04:26.140Z,3.33
2023-01-21T22:06:54.569Z,3.10
2023-01-21T22:09:23.108Z,3.43
2023-01-21T22:11:51.510Z,3.40
2023-01-21T22:14:19.976Z,3.00
2023-01-21T22:16:50.820Z,3.80
2023-01-21T22:19:19.361Z,3.47
2023-01-21T22:21:48.457Z,3.23
2023-01-21T22:24:16.870Z,3.47
2023-01-21T22:26:45.637Z,3.50
2023-01-21T22:29:14.197Z,4.27
2023-01-21T22:31:43.265Z,4.80
2023-01-21T22:34:12.749Z,4.80
2023-01-21T22:36:43.059Z,2.37
2023-01-21T22:39:12.966Z,3.90
2023-01-21T22:41:41.360Z,2.73
2023-01-21T22:44:09.877Z,2.20
2023-01-21T22:46:38.333Z,2.60
2023-01-21T22:49:07.418Z,2.70
2023-01-21T22:51:35.848Z,2.80
2023-01-21T22:54:04.347Z,3.93
2023-01-21T22:56:50.535Z,2.40
2023-01-21T22:59:20.386Z,2.83
2023-01-21T23:01:51.662Z,2.50
2023-01-21T23:04:20.828Z,3.17
2023-01-21T23:06:50.891Z,3.20
2023-01-21T23:09:19.383Z,4.30
2023-01-21T23:11:48.030Z,2.83
2023-01-21T23:14:17.370Z,2.50
2023-01-21T23:16:46.175Z,3.20
2023-01-21T23:19:15.232Z,3.13
2023-01-21T23:21:43.739Z,2.63
2023-01-21T23:24:12.739Z,2.60
2023-01-21T23:26:41.192Z,2.77
2023-01-21T23:29:09.601Z,2.30
2023-01-21T23:31:38.128Z,2.43
2023-01-21T23:34:06.731Z,2.90
2023-01-21T23:36:35.284Z,2.37
2023-01-21T23:39:03.675Z,2.07
2023-01-21T23:41:32.699Z,2.63
2023-01-21T23:44:02.627Z,3.10
2023-01-21T23:46:31.738Z,2.47
2023-01-21T23:49:00.670Z,2.50
2023-01-21T23:51:29.119Z,2.20
2023-01-21T23:53:57.929Z,2.37
2023-01-21T23:56:27.373Z,2.50
2023-01-21T23:58:55.909Z,3.13
